aviador You're here:

ZMUB Decoded Metar

ULAN BATOR in MONGOLIA
Report Time2017-12-16 18:00:00
UTC Time2017-12-16 18:43:36
Flight Rules vfr VFR
WindCalm
Visibility9999 m
Phenomena:N/A
Clouds:N/A
Expected CloudBase > 1,200 ft AGL from Temp-Dew spread
CeilingNone
Temp-24°C (ISA -30)
Dew Point-27°C (76% RH)
AAT-27.8°C
QNH1024 hPa
Density Alt138 ft
Elevation4,364 ft
Report Wrong Elevation
Raw Report
ZMUB 161800Z 00000MPS CAVOK M24/M27 Q1024 NOSIG RMK QFE660.0
76=

Extra information for ZMUB:More info

Metar Taf Metar & Taf Last 4 Metars F.Rules Stats Wind Profile Meteogram Temp Stats Airport Information Weather charts Add Link Nearby VenuesMetar ALERT Operation Metar Decoded Social comments